createdAt,value
2022-12-31T00:00:29.109Z,11.00
2022-12-31T00:05:32.055Z,11.00
2022-12-31T00:10:39.924Z,11.10
2022-12-31T00:15:42.851Z,11.10
2022-12-31T00:20:44.543Z,11.20
2022-12-31T00:25:46.213Z,11.20
2022-12-31T00:30:47.938Z,11.20
2022-12-31T00:35:49.628Z,11.30
2022-12-31T00:40:51.286Z,11.20
2022-12-31T00:45:53.050Z,11.20
2022-12-31T00:50:56.000Z,11.20
2022-12-31T00:56:02.296Z,11.20
2022-12-31T01:01:19.963Z,11.20
2022-12-31T01:06:22.027Z,11.20
2022-12-31T01:11:29.079Z,11.00
2022-12-31T01:16:32.249Z,10.90
2022-12-31T01:21:35.392Z,10.80
2022-12-31T01:26:37.827Z,10.90
2022-12-31T01:31:40.207Z,11.00
2022-12-31T01:36:41.998Z,11.10
2022-12-31T01:41:45.824Z,11.20
2022-12-31T01:46:51.740Z,11.30
2022-12-31T01:52:03.858Z,11.30
2022-12-31T01:57:06.751Z,11.20
2022-12-31T02:02:08.556Z,11.20
2022-12-31T02:07:11.642Z,11.40
2022-12-31T02:12:13.438Z,11.40
2022-12-31T02:17:40.298Z,11.20
2022-12-31T02:23:20.915Z,11.30
2022-12-31T02:28:52.515Z,11.30
2022-12-31T02:34:10.412Z,11.30
2022-12-31T02:39:13.860Z,11.30
2022-12-31T02:44:25.544Z,11.40
2022-12-31T02:49:54.649Z,11.50
2022-12-31T02:55:16.133Z,11.60
2022-12-31T03:00:36.977Z,11.70
2022-12-31T03:05:43.209Z,11.80
2022-12-31T03:10:44.880Z,11.70
2022-12-31T03:15:46.595Z,11.70
2022-12-31T03:21:09.123Z,11.80
2022-12-31T03:26:12.543Z,11.90
2022-12-31T03:31:14.437Z,11.90
2022-12-31T03:36:16.182Z,11.90
2022-12-31T03:41:17.851Z,12.10
2022-12-31T03:46:19.624Z,12.00
2022-12-31T03:51:21.381Z,12.10
2022-12-31T03:56:23.086Z,12.10
2022-12-31T04:01:25.425Z,12.20
2022-12-31T04:06:27.264Z,12.30
2022-12-31T04:11:28.959Z,12.40
2022-12-31T04:16:32.187Z,12.50
2022-12-31T04:21:35.333Z,12.50
2022-12-31T04:26:37.569Z,12.50
2022-12-31T04:31:39.282Z,12.50
2022-12-31T04:36:40.988Z,12.60
2022-12-31T04:41:42.676Z,12.70
2022-12-31T04:46:44.374Z,12.70
2022-12-31T04:51:46.171Z,12.70
2022-12-31T04:56:47.858Z,12.80
2022-12-31T05:01:49.666Z,12.80
2022-12-31T05:06:51.492Z,12.90
2022-12-31T05:11:53.238Z,13.00
2022-12-31T05:16:55.005Z,13.00
2022-12-31T05:22:15.331Z,13.10
2022-12-31T05:27:17.042Z,13.10
2022-12-31T05:32:18.859Z,13.10
2022-12-31T05:37:20.576Z,13.20
2022-12-31T05:42:22.721Z,13.30
2022-12-31T05:47:24.843Z,13.30
2022-12-31T05:52:26.658Z,13.30
2022-12-31T05:57:28.545Z,13.20
2022-12-31T06:02:30.296Z,13.30
2022-12-31T06:07:32.040Z,13.30
2022-12-31T06:12:33.867Z,13.40
2022-12-31T06:17:35.801Z,13.40
2022-12-31T06:22:37.455Z,13.40
2022-12-31T06:27:39.141Z,13.60
2022-12-31T06:32:41.146Z,13.60
2022-12-31T06:37:42.841Z,13.70
2022-12-31T06:42:44.619Z,13.60
2022-12-31T06:47:46.545Z,13.70
2022-12-31T06:52:48.280Z,13.70
2022-12-31T06:57:50.384Z,13.80
2022-12-31T07:03:19.356Z,13.80
2022-12-31T07:08:26.494Z,13.90
2022-12-31T07:13:38.196Z,14.00
2022-12-31T07:18:54.917Z,14.20
2022-12-31T07:23:56.883Z,14.20
2022-12-31T07:29:40.067Z,14.30
2022-12-31T07:35:03.534Z,14.40
2022-12-31T07:40:32.894Z,14.50
2022-12-31T07:46:13.467Z,14.60
2022-12-31T07:51:15.611Z,14.60
2022-12-31T07:56:17.402Z,14.70
2022-12-31T08:01:47.046Z,14.70
2022-12-31T08:07:10.051Z,14.70
2022-12-31T08:12:11.836Z,14.70
2022-12-31T08:17:16.358Z,14.70
2022-12-31T08:22:40.503Z,14.90
2022-12-31T08:27:44.925Z,14.90
2022-12-31T08:33:13.191Z,14.90
2022-12-31T08:38:20.979Z,15.00
2022-12-31T08:43:25.429Z,15.10
2022-12-31T08:48:38.850Z,15.20
2022-12-31T08:53:40.900Z,15.20
2022-12-31T08:59:09.023Z,15.20
2022-12-31T09:04:32.725Z,15.30
2022-12-31T09:10:25.829Z,15.40
2022-12-31T09:15:39.239Z,15.50
2022-12-31T09:20:43.428Z,15.60
2022-12-31T09:26:08.310Z,15.60
2022-12-31T09:31:29.261Z,15.80
2022-12-31T09:36:43.793Z,15.70
2022-12-31T09:41:57.915Z,15.80
2022-12-31T09:47:24.126Z,15.80
2022-12-31T09:52:35.176Z,16.00
2022-12-31T09:57:41.216Z,16.00
2022-12-31T10:02:50.768Z,16.00
2022-12-31T10:08:17.732Z,16.00
2022-12-31T10:13:46.369Z,16.20
2022-12-31T10:19:13.368Z,16.30
2022-12-31T10:24:47.751Z,16.40
2022-12-31T10:30:12.242Z,16.50
2022-12-31T10:35:45.478Z,16.60
2022-12-31T10:40:58.892Z,16.70
2022-12-31T10:46:06.399Z,16.90
2022-12-31T10:51:23.539Z,17.10
2022-12-31T10:56:25.225Z,17.30
2022-12-31T11:01:27.009Z,17.40
2022-12-31T11:07:10.614Z,17.40
2022-12-31T11:12:31.001Z,17.20
2022-12-31T11:17:57.135Z,17.20
2022-12-31T11:23:09.513Z,17.10
2022-12-31T11:28:38.595Z,17.10
2022-12-31T11:34:10.580Z,17.20
2022-12-31T11:39:31.483Z,17.30
2022-12-31T11:44:52.712Z,17.30
2022-12-31T11:50:19.712Z,17.30
2022-12-31T11:55:43.334Z,17.40
2022-12-31T12:01:13.775Z,17.30
2022-12-31T12:06:18.842Z,17.20
2022-12-31T12:11:31.871Z,17.00
2022-12-31T12:16:33.609Z,17.10
2022-12-31T12:21:49.258Z,17.30
2022-12-31T12:26:51.332Z,17.30
2022-12-31T12:32:06.098Z,17.40
2022-12-31T12:37:28.639Z,17.40
2022-12-31T12:42:31.473Z,17.40
2022-12-31T12:47:34.139Z,17.50
2022-12-31T12:53:08.583Z,17.70
2022-12-31T12:58:21.477Z,17.60
2022-12-31T13:03:29.098Z,17.60
2022-12-31T13:08:35.894Z,17.60
2022-12-31T13:13:53.696Z,17.50
2022-12-31T13:18:59.074Z,17.40
2022-12-31T13:24:24.179Z,17.40
2022-12-31T13:29:31.109Z,17.30
2022-12-31T13:34:37.635Z,17.20
2022-12-31T13:39:41.874Z,17.20
2022-12-31T13:45:08.737Z,17.20
2022-12-31T13:50:24.960Z,17.10
2022-12-31T13:55:34.705Z,17.10
2022-12-31T14:01:02.074Z,17.10
2022-12-31T14:06:28.907Z,17.10
2022-12-31T14:11:54.251Z,17.00
2022-12-31T14:17:05.449Z,16.90
2022-12-31T14:22:39.570Z,17.00
2022-12-31T14:27:44.981Z,17.00
2022-12-31T14:32:52.650Z,17.00
2022-12-31T14:38:36.242Z,16.80
2022-12-31T14:43:56.837Z,16.60
2022-12-31T14:49:39.920Z,16.40
2022-12-31T14:54:42.036Z,16.40
2022-12-31T14:59:58.560Z,16.30
2022-12-31T15:05:12.567Z,16.20
2022-12-31T15:10:14.239Z,16.10
2022-12-31T15:15:33.383Z,16.00
2022-12-31T15:21:13.388Z,15.90
2022-12-31T15:26:25.522Z,15.90
2022-12-31T15:31:28.622Z,15.80
2022-12-31T15:36:40.493Z,15.80
2022-12-31T15:42:35.524Z,15.70
2022-12-31T15:47:19.224Z,15.70
2022-12-31T15:52:26.349Z,15.80
2022-12-31T15:57:37.802Z,15.80
2022-12-31T16:02:43.030Z,15.70
2022-12-31T16:07:45.208Z,15.60
2022-12-31T16:12:47.246Z,15.60
2022-12-31T16:18:04.432Z,15.70
2022-12-31T16:23:27.505Z,15.70
2022-12-31T16:28:32.185Z,15.80
2022-12-31T16:33:34.301Z,15.70
2022-12-31T16:38:37.757Z,15.80
2022-12-31T16:43:42.080Z,15.80
2022-12-31T16:49:03.940Z,15.80
2022-12-31T16:54:19.297Z,15.80
2022-12-31T16:59:24.170Z,15.80
2022-12-31T17:04:26.371Z,15.70
2022-12-31T17:09:36.951Z,15.70
2022-12-31T17:14:49.159Z,15.70
2022-12-31T17:19:57.373Z,15.80
2022-12-31T17:25:22.923Z,15.80
2022-12-31T17:30:32.557Z,15.80
2022-12-31T17:35:42.765Z,15.70
2022-12-31T17:40:53.622Z,15.70
2022-12-31T17:45:55.448Z,15.70
2022-12-31T17:51:00.300Z,15.60
2022-12-31T17:56:05.156Z,15.60
2022-12-31T18:01:09.020Z,15.60
2022-12-31T18:06:16.600Z,15.60
2022-12-31T18:11:22.106Z,15.50
2022-12-31T18:16:23.919Z,15.40
2022-12-31T18:21:34.504Z,15.40
2022-12-31T18:26:36.278Z,15.30
2022-12-31T18:31:39.407Z,15.20
2022-12-31T18:36:41.859Z,15.20
2022-12-31T18:41:50.820Z,15.20
2022-12-31T18:46:52.518Z,15.10
2022-12-31T18:51:55.189Z,15.10
2022-12-31T18:56:57.304Z,15.10
2022-12-31T19:01:59.260Z,15.10
2022-12-31T19:07:01.007Z,15.20
2022-12-31T19:12:02.940Z,15.30
2022-12-31T19:22:05.254Z,15.40
2022-12-31T19:27:06.928Z,15.50
2022-12-31T19:32:08.699Z,15.40
2022-12-31T19:37:15.203Z,15.50
2022-12-31T19:42:16.929Z,15.50
2022-12-31T19:47:18.585Z,15.40
2022-12-31T19:52:20.261Z,15.40
2022-12-31T19:57:21.961Z,15.40
2022-12-31T20:02:23.859Z,15.50
2022-12-31T20:07:27.351Z,15.50
2022-12-31T20:12:29.578Z,15.50
2022-12-31T20:17:31.559Z,15.60
2022-12-31T20:22:33.485Z,15.60
2022-12-31T20:27:35.357Z,15.70
2022-12-31T20:32:37.096Z,15.70
2022-12-31T20:37:38.902Z,15.60
2022-12-31T20:42:41.312Z,15.50
2022-12-31T20:47:43.000Z,15.50
2022-12-31T20:52:44.794Z,15.50
2022-12-31T20:57:46.561Z,15.50
2022-12-31T21:02:57.675Z,15.50
2022-12-31T21:08:05.743Z,15.50
2022-12-31T21:13:07.663Z,15.50
2022-12-31T21:18:09.472Z,15.50
2022-12-31T21:23:11.134Z,15.40
2022-12-31T21:28:13.084Z,15.40
2022-12-31T21:33:14.847Z,15.40
2022-12-31T21:38:16.936Z,15.30
2022-12-31T21:43:18.956Z,15.40
2022-12-31T21:48:21.061Z,15.40
2022-12-31T21:53:29.071Z,15.30
2022-12-31T21:58:40.439Z,15.30
2022-12-31T22:03:42.311Z,15.30
2022-12-31T22:08:47.310Z,15.30
2022-12-31T22:13:49.571Z,15.20
2022-12-31T22:18:51.317Z,15.30
2022-12-31T22:23:55.522Z,15.30
2022-12-31T22:28:59.360Z,15.30
2022-12-31T22:34:02.156Z,15.30
2022-12-31T22:39:04.043Z,15.30
2022-12-31T22:44:05.882Z,15.20
2022-12-31T22:49:09.915Z,15.10
2022-12-31T22:54:11.776Z,15.00
2022-12-31T22:59:13.708Z,15.00
2022-12-31T23:04:15.678Z,15.00
2022-12-31T23:09:37.028Z,14.90
2022-12-31T23:14:57.418Z,15.00
2022-12-31T23:20:21.370Z,15.00
2022-12-31T23:25:23.072Z,15.10
2022-12-31T23:30:24.993Z,15.10
2022-12-31T23:35:26.718Z,15.00
2022-12-31T23:40:34.322Z,15.00
2022-12-31T23:45:36.901Z,15.00
2022-12-31T23:50:40.718Z,14.90
2022-12-31T23:55:42.422Z,14.90
